sensor_id;sensor_type;location;lat;lon;timestamp;temperature;humidity
15922;DHT22;8060;50.948;3.146;2022-10-30T07:01:41;14.40;99.90
15922;DHT22;8060;50.948;3.146;2022-10-30T07:04:09;14.40;99.90
15922;DHT22;8060;50.948;3.146;2022-10-30T07:06:37;14.40;99.90
15922;DHT22;8060;50.948;3.146;2022-10-30T07:09:05;14.40;99.90
15922;DHT22;8060;50.948;3.146;2022-10-30T07:11:34;14.50;99.90
15922;DHT22;8060;50.948;3.146;2022-10-30T07:14:02;14.50;99.90
15922;DHT22;8060;50.948;3.146;2022-10-30T07:16:30;14.50;99.90
15922;DHT22;8060;50.948;3.146;2022-10-30T07:18:59;14.60;99.90
15922;DHT22;8060;50.948;3.146;2022-10-30T07:21:30;14.60;99.90
15922;DHT22;8060;50.948;3.146;2022-10-30T07:23:58;14.60;99.90
15922;DHT22;8060;50.948;3.146;2022-10-30T07:26:26;14.70;99.90
15922;DHT22;8060;50.948;3.146;2022-10-30T07:28:54;14.70;99.90
15922;DHT22;8060;50.948;3.146;2022-10-30T07:31:22;14.70;99.90
15922;DHT22;8060;50.948;3.146;2022-10-30T07:34:09;14.80;99.90
15922;DHT22;8060;50.948;3.146;2022-10-30T07:36:37;14.80;99.90
15922;DHT22;8060;50.948;3.146;2022-10-30T07:39:05;14.80;99.90
15922;DHT22;8060;50.948;3.146;2022-10-30T07:41:33;14.90;99.90
15922;DHT22;8060;50.948;3.146;2022-10-30T07:44:01;14.90;99.90
15922;DHT22;8060;50.948;3.146;2022-10-30T07:46:29;15.00;99.90
15922;DHT22;8060;50.948;3.146;2022-10-30T07:48:58;15.00;99.90
15922;DHT22;8060;50.948;3.146;2022-10-30T07:51:27;15.00;99.90
15922;DHT22;8060;50.948;3.146;2022-10-30T07:53:55;15.00;99.90
15922;DHT22;8060;50.948;3.146;2022-10-30T07:56:23;15.20;99.90
15922;DHT22;8060;50.948;3.146;2022-10-30T07:58:51;15.20;99.90
15922;DHT22;8060;50.948;3.146;2022-10-30T08:01:19;15.30;99.90
15922;DHT22;8060;50.948;3.146;2022-10-30T08:03:48;15.30;99.90
15922;DHT22;8060;50.948;3.146;2022-10-30T08:06:16;15.40;99.90
15922;DHT22;8060;50.948;3.146;2022-10-30T08:08:51;15.40;99.90
15922;DHT22;8060;50.948;3.146;2022-10-30T08:11:19;15.50;99.90
15922;DHT22;8060;50.948;3.146;2022-10-30T08:13:47;15.50;99.90
15922;DHT22;8060;50.948;3.146;2022-10-30T08:16:15;15.60;99.90
15922;DHT22;8060;50.948;3.146;2022-10-30T08:18:44;15.60;99.90
15922;DHT22;8060;50.948;3.146;2022-10-30T08:21:12;15.70;99.90
15922;DHT22;8060;50.948;3.146;2022-10-30T08:23:40;15.70;99.90
15922;DHT22;8060;50.948;3.146;2022-10-30T08:26:09;15.80;99.90
15922;DHT22;8060;50.948;3.146;2022-10-30T08:28:37;15.80;99.90
15922;DHT22;8060;50.948;3.146;2022-10-30T08:31:05;15.90;99.90
15922;DHT22;8060;50.948;3.146;2022-10-30T08:33:34;15.90;99.90
15922;DHT22;8060;50.948;3.146;2022-10-30T08:36:02;15.90;99.90
15922;DHT22;8060;50.948;3.146;2022-10-30T08:38:31;15.90;99.90
15922;DHT22;8060;50.948;3.146;2022-10-30T08:41:00;16.00;99.90
15922;DHT22;8060;50.948;3.146;2022-10-30T08:43:29;16.00;99.90
15922;DHT22;8060;50.948;3.146;2022-10-30T08:45:58;16.10;99.90
15922;DHT22;8060;50.948;3.146;2022-10-30T08:48:26;16.20;99.90
15922;DHT22;8060;50.948;3.146;2022-10-30T08:50:57;16.30;99.90
15922;DHT22;8060;50.948;3.146;2022-10-30T08:53:27;16.30;99.90
15922;DHT22;8060;50.948;3.146;2022-10-30T08:55:55;16.50;99.90
15922;DHT22;8060;50.948;3.146;2022-10-30T08:58:23;16.60;99.90
15922;DHT22;8060;50.948;3.146;2022-10-30T09:00:52;16.80;99.90
15922;DHT22;8060;50.948;3.146;2022-10-30T09:03:27;17.00;99.90
15922;DHT22;8060;50.948;3.146;2022-10-30T09:05:57;17.20;99.90
15922;DHT22;8060;50.948;3.146;2022-10-30T09:08:25;17.30;99.90
15922;DHT22;8060;50.948;3.146;2022-10-30T09:10:54;17.40;99.90
15922;DHT22;8060;50.948;3.146;2022-10-30T09:13:22;17.40;99.90
15922;DHT22;8060;50.948;3.146;2022-10-30T09:15:52;17.50;99.90
15922;DHT22;8060;50.948;3.146;2022-10-30T09:18:21;17.50;99.90
15922;DHT22;8060;50.948;3.146;2022-10-30T09:20:49;17.60;99.90
15922;DHT22;8060;50.948;3.146;2022-10-30T09:23:17;17.80;99.90
15922;DHT22;8060;50.948;3.146;2022-10-30T09:25:45;17.90;99.90
15922;DHT22;8060;50.948;3.146;2022-10-30T09:28:13;18.00;99.90
15922;DHT22;8060;50.948;3.146;2022-10-30T09:30:42;18.20;99.90
15922;DHT22;8060;50.948;3.146;2022-10-30T09:33:11;18.20;99.90
15922;DHT22;8060;50.948;3.146;2022-10-30T09:35:39;18.20;99.90
15922;DHT22;8060;50.948;3.146;2022-10-30T09:38:07;18.40;99.90
15922;DHT22;8060;50.948;3.146;2022-10-30T09:40:47;18.50;99.90
15922;DHT22;8060;50.948;3.146;2022-10-30T09:43:25;18.70;99.90
15922;DHT22;8060;50.948;3.146;2022-10-30T09:46:12;19.00;99.90
15922;DHT22;8060;50.948;3.146;2022-10-30T09:52:19;19.50;99.90
15922;DHT22;8060;50.948;3.146;2022-10-30T09:57:53;20.00;99.90
15922;DHT22;8060;50.948;3.146;2022-10-30T10:00:28;20.00;99.90
15922;DHT22;8060;50.948;3.146;2022-10-30T10:03:12;20.20;99.90
15922;DHT22;8060;50.948;3.146;2022-10-30T10:05:49;20.30;99.90
15922;DHT22;8060;50.948;3.146;2022-10-30T10:08:22;20.30;99.90
15922;DHT22;8060;50.948;3.146;2022-10-30T10:10:52;20.40;99.90
15922;DHT22;8060;50.948;3.146;2022-10-30T10:13:29;20.40;99.90
15922;DHT22;8060;50.948;3.146;2022-10-30T10:16:02;20.40;99.90
15922;DHT22;8060;50.948;3.146;2022-10-30T10:18:36;20.40;99.90
15922;DHT22;8060;50.948;3.146;2022-10-30T10:21:13;20.40;99.90
15922;DHT22;8060;50.948;3.146;2022-10-30T10:23:46;20.30;99.90
15922;DHT22;8060;50.948;3.146;2022-10-30T10:26:27;20.20;99.90
15922;DHT22;8060;50.948;3.146;2022-10-30T10:29:15;20.20;99.90
15922;DHT22;8060;50.948;3.146;2022-10-30T10:31:56;20.00;99.90
15922;DHT22;8060;50.948;3.146;2022-10-30T10:34:40;19.80;99.90
15922;DHT22;8060;50.948;3.146;2022-10-30T10:37:21;19.60;99.90
15922;DHT22;8060;50.948;3.146;2022-10-30T10:40:01;19.60;99.90
15922;DHT22;8060;50.948;3.146;2022-10-30T10:42:37;19.70;99.90
15922;DHT22;8060;50.948;3.146;2022-10-30T10:45:16;19.70;99.90
15922;DHT22;8060;50.948;3.146;2022-10-30T10:48:08;19.80;99.90
15922;DHT22;8060;50.948;3.146;2022-10-30T10:50:46;19.90;99.90
15922;DHT22;8060;50.948;3.146;2022-10-30T10:53:21;20.10;99.90
15922;DHT22;8060;50.948;3.146;2022-10-30T10:55:53;20.20;99.90
15922;DHT22;8060;50.948;3.146;2022-10-30T10:58:28;20.40;99.90
15922;DHT22;8060;50.948;3.146;2022-10-30T11:00:58;20.40;99.90
15922;DHT22;8060;50.948;3.146;2022-10-30T11:03:33;20.30;99.90
15922;DHT22;8060;50.948;3.146;2022-10-30T11:06:17;20.20;99.90
15922;DHT22;8060;50.948;3.146;2022-10-30T11:08:48;20.10;99.90
15922;DHT22;8060;50.948;3.146;2022-10-30T11:11:16;20.20;99.90
15922;DHT22;8060;50.948;3.146;2022-10-30T11:13:44;20.30;99.90
15922;DHT22;8060;50.948;3.146;2022-10-30T11:16:23;20.30;99.90
15922;DHT22;8060;50.948;3.146;2022-10-30T11:18:54;20.40;99.90
15922;DHT22;8060;50.948;3.146;2022-10-30T11:21:24;20.40;99.90
15922;DHT22;8060;50.948;3.146;2022-10-30T11:23:54;20.40;99.90
15922;DHT22;8060;50.948;3.146;2022-10-30T11:26:31;20.60;99.90
15922;DHT22;8060;50.948;3.146;2022-10-30T11:29:11;20.90;99.90
15922;DHT22;8060;50.948;3.146;2022-10-30T11:31:41;21.30;99.90
15922;DHT22;8060;50.948;3.146;2022-10-30T11:34:29;21.50;99.90
15922;DHT22;8060;50.948;3.146;2022-10-30T11:36:58;21.70;99.90
15922;DHT22;8060;50.948;3.146;2022-10-30T11:39:29;22.10;99.90
15922;DHT22;8060;50.948;3.146;2022-10-30T11:42:00;22.80;99.90
15922;DHT22;8060;50.948;3.146;2022-10-30T11:44:32;23.20;99.90
15922;DHT22;8060;50.948;3.146;2022-10-30T11:47:02;23.50;99.90
15922;DHT22;8060;50.948;3.146;2022-10-30T11:49:37;23.50;99.90
15922;DHT22;8060;50.948;3.146;2022-10-30T11:52:07;23.70;99.90
15922;DHT22;8060;50.948;3.146;2022-10-30T11:54:40;24.00;99.90
15922;DHT22;8060;50.948;3.146;2022-10-30T11:57:20;24.00;99.90
15922;DHT22;8060;50.948;3.146;2022-10-30T11:59:50;24.00;99.90
15922;DHT22;8060;50.948;3.146;2022-10-30T12:02:23;23.90;99.90
15922;DHT22;8060;50.948;3.146;2022-10-30T12:04:54;23.80;99.90
15922;DHT22;8060;50.948;3.146;2022-10-30T12:07:25;23.60;99.90
15922;DHT22;8060;50.948;3.146;2022-10-30T12:09:56;23.60;99.90
15922;DHT22;8060;50.948;3.146;2022-10-30T12:12:27;23.90;99.90
15922;DHT22;8060;50.948;3.146;2022-10-30T12:15:07;24.10;99.90
15922;DHT22;8060;50.948;3.146;2022-10-30T12:17:37;24.40;99.90
15922;DHT22;8060;50.948;3.146;2022-10-30T12:20:11;24.80;99.90
15922;DHT22;8060;50.948;3.146;2022-10-30T12:22:40;24.80;99.90
15922;DHT22;8060;50.948;3.146;2022-10-30T12:25:21;25.00;99.90
15922;DHT22;8060;50.948;3.146;2022-10-30T12:27:56;24.50;99.90
15922;DHT22;8060;50.948;3.146;2022-10-30T12:30:28;23.80;99.90
15922;DHT22;8060;50.948;3.146;2022-10-30T12:33:01;23.20;99.90
15922;DHT22;8060;50.948;3.146;2022-10-30T12:35:38;22.70;99.90
15922;DHT22;8060;50.948;3.146;2022-10-30T12:38:14;22.10;99.90
15922;DHT22;8060;50.948;3.146;2022-10-30T12:40:55;21.70;99.90
15922;DHT22;8060;50.948;3.146;2022-10-30T12:43:25;21.30;99.90
15922;DHT22;8060;50.948;3.146;2022-10-30T12:45:57;21.10;99.90
15922;DHT22;8060;50.948;3.146;2022-10-30T12:48:33;20.80;99.90
15922;DHT22;8060;50.948;3.146;2022-10-30T12:51:13;20.50;99.90
15922;DHT22;8060;50.948;3.146;2022-10-30T12:53:53;20.20;99.90
15922;DHT22;8060;50.948;3.146;2022-10-30T12:56:29;20.20;99.90
15922;DHT22;8060;50.948;3.146;2022-10-30T12:59:08;20.00;99.90
15922;DHT22;8060;50.948;3.146;2022-10-30T13:01:43;19.80;99.90
15922;DHT22;8060;50.948;3.146;2022-10-30T13:04:16;19.80;99.90
15922;DHT22;8060;50.948;3.146;2022-10-30T13:06:50;19.70;99.90
15922;DHT22;8060;50.948;3.146;2022-10-30T13:09:24;19.60;99.90
15922;DHT22;8060;50.948;3.146;2022-10-30T13:11:58;19.50;99.90
15922;DHT22;8060;50.948;3.146;2022-10-30T13:14:34;19.50;99.90
15922;DHT22;8060;50.948;3.146;2022-10-30T13:17:04;19.40;99.90
15922;DHT22;8060;50.948;3.146;2022-10-30T13:19:36;19.40;99.90
15922;DHT22;8060;50.948;3.146;2022-10-30T13:22:06;19.40;99.90
15922;DHT22;8060;50.948;3.146;2022-10-30T13:24:44;19.40;99.90
15922;DHT22;8060;50.948;3.146;2022-10-30T13:27:18;19.40;99.90
15922;DHT22;8060;50.948;3.146;2022-10-30T13:29:57;19.40;99.90
15922;DHT22;8060;50.948;3.146;2022-10-30T13:32:38;19.40;99.90
15922;DHT22;8060;50.948;3.146;2022-10-30T13:35:22;19.40;99.90
15922;DHT22;8060;50.948;3.146;2022-10-30T13:37:59;19.30;99.90
15922;DHT22;8060;50.948;3.146;2022-10-30T13:40:33;19.30;99.90
15922;DHT22;8060;50.948;3.146;2022-10-30T13:43:12;19.30;99.90
15922;DHT22;8060;50.948;3.146;2022-10-30T13:46:02;19.20;99.90
15922;DHT22;8060;50.948;3.146;2022-10-30T13:48:42;19.20;99.90
15922;DHT22;8060;50.948;3.146;2022-10-30T13:51:32;19.10;99.90
15922;DHT22;8060;50.948;3.146;2022-10-30T13:54:13;19.10;99.90
15922;DHT22;8060;50.948;3.146;2022-10-30T13:56:44;19.10;99.90
15922;DHT22;8060;50.948;3.146;2022-10-30T13:59:36;19.10;99.90
15922;DHT22;8060;50.948;3.146;2022-10-30T14:02:17;19.20;99.90
15922;DHT22;8060;50.948;3.146;2022-10-30T14:04:53;19.20;99.90
15922;DHT22;8060;50.948;3.146;2022-10-30T14:07:28;19.20;99.90
15922;DHT22;8060;50.948;3.146;2022-10-30T14:10:04;19.30;99.90
15922;DHT22;8060;50.948;3.146;2022-10-30T14:12:44;19.30;99.90
15922;DHT22;8060;50.948;3.146;2022-10-30T14:15:24;19.30;99.90
15922;DHT22;8060;50.948;3.146;2022-10-30T14:18:23;19.30;99.90
15922;DHT22;8060;50.948;3.146;2022-10-30T14:20:53;19.30;99.90
15922;DHT22;8060;50.948;3.146;2022-10-30T14:23:23;19.30;99.90
15922;DHT22;8060;50.948;3.146;2022-10-30T14:26:19;19.30;99.90
15922;DHT22;8060;50.948;3.146;2022-10-30T14:28:48;19.40;99.90
15922;DHT22;8060;50.948;3.146;2022-10-30T14:31:31;19.40;99.90
15922;DHT22;8060;50.948;3.146;2022-10-30T14:34:00;19.30;99.90
15922;DHT22;8060;50.948;3.146;2022-10-30T14:36:47;19.20;99.90
15922;DHT22;8060;50.948;3.146;2022-10-30T14:39:28;19.20;99.90
15922;DHT22;8060;50.948;3.146;2022-10-30T14:42:09;19.20;99.90
15922;DHT22;8060;50.948;3.146;2022-10-30T14:44:50;19.10;99.90
15922;DHT22;8060;50.948;3.146;2022-10-30T14:47:39;19.10;99.90
15922;DHT22;8060;50.948;3.146;2022-10-30T14:53:21;19.10;99.90
15922;DHT22;8060;50.948;3.146;2022-10-30T14:55:58;19.10;99.90
15922;DHT22;8060;50.948;3.146;2022-10-30T14:58:30;19.00;99.90
15922;DHT22;8060;50.948;3.146;2022-10-30T15:01:27;19.00;99.90
15922;DHT22;8060;50.948;3.146;2022-10-30T15:04:06;18.90;99.90
15922;DHT22;8060;50.948;3.146;2022-10-30T15:06:49;18.90;99.90
15922;DHT22;8060;50.948;3.146;2022-10-30T15:09:26;18.90;99.90
15922;DHT22;8060;50.948;3.146;2022-10-30T15:18:46;18.80;99.90
15922;DHT22;8060;50.948;3.146;2022-10-30T15:21:20;18.70;99.90
15922;DHT22;8060;50.948;3.146;2022-10-30T15:23:54;18.70;99.90
15922;DHT22;8060;50.948;3.146;2022-10-30T15:26:29;18.60;99.90
15922;DHT22;8060;50.948;3.146;2022-10-30T15:28:59;18.60;99.90
